sensor_id;sensor_type;location;lat;lon;timestamp;temperature;humidity
10572;DHT22;5334;48.928;12.704;2022-09-03T00:02:42;15.00;99.90
10572;DHT22;5334;48.928;12.704;2022-09-03T00:10:44;14.90;99.90
10572;DHT22;5334;48.928;12.704;2022-09-03T00:13:24;14.90;99.90
10572;DHT22;5334;48.928;12.704;2022-09-03T00:15:52;14.90;99.90
10572;DHT22;5334;48.928;12.704;2022-09-03T00:18:23;14.90;99.90
10572;DHT22;5334;48.928;12.704;2022-09-03T00:21:11;14.90;99.90
10572;DHT22;5334;48.928;12.704;2022-09-03T00:23:41;14.80;99.90
10572;DHT22;5334;48.928;12.704;2022-09-03T00:29:05;14.80;99.90
10572;DHT22;5334;48.928;12.704;2022-09-03T00:31:53;14.80;99.90
10572;DHT22;5334;48.928;12.704;2022-09-03T00:34:34;14.70;99.90
10572;DHT22;5334;48.928;12.704;2022-09-03T00:37:00;14.50;99.90
10572;DHT22;5334;48.928;12.704;2022-09-03T00:39:28;14.40;99.90
10572;DHT22;5334;48.928;12.704;2022-09-03T00:53:06;13.60;99.90
10572;DHT22;5334;48.928;12.704;2022-09-03T00:58:39;13.60;99.90
10572;DHT22;5334;48.928;12.704;2022-09-03T01:01:14;13.60;99.90
10572;DHT22;5334;48.928;12.704;2022-09-03T01:04:05;13.60;99.90
10572;DHT22;5334;48.928;12.704;2022-09-03T01:06:36;13.60;99.90
10572;DHT22;5334;48.928;12.704;2022-09-03T01:11:52;13.70;99.90
10572;DHT22;5334;48.928;12.704;2022-09-03T01:20:13;13.20;99.90
10572;DHT22;5334;48.928;12.704;2022-09-03T01:37:10;13.00;99.90
10572;DHT22;5334;48.928;12.704;2022-09-03T01:40:00;13.00;99.90
10572;DHT22;5334;48.928;12.704;2022-09-03T01:51:19;13.00;99.90
10572;DHT22;5334;48.928;12.704;2022-09-03T02:09:27;12.80;99.90
10572;DHT22;5334;48.928;12.704;2022-09-03T02:12:05;12.80;99.90
10572;DHT22;5334;48.928;12.704;2022-09-03T02:14:32;12.70;99.90
10572;DHT22;5334;48.928;12.704;2022-09-03T02:16:59;12.60;99.90
10572;DHT22;5334;48.928;12.704;2022-09-03T02:19:27;12.50;99.90
10572;DHT22;5334;48.928;12.704;2022-09-03T02:21:55;12.50;99.90
10572;DHT22;5334;48.928;12.704;2022-09-03T02:24:22;12.50;99.90
10572;DHT22;5334;48.928;12.704;2022-09-03T02:26:48;12.50;99.90
10572;DHT22;5334;48.928;12.704;2022-09-03T02:29:15;12.50;99.90
10572;DHT22;5334;48.928;12.704;2022-09-03T02:31:44;12.50;99.90
10572;DHT22;5334;48.928;12.704;2022-09-03T02:34:10;12.40;99.90
10572;DHT22;5334;48.928;12.704;2022-09-03T02:36:39;12.30;99.90
10572;DHT22;5334;48.928;12.704;2022-09-03T02:39:06;12.30;99.90
10572;DHT22;5334;48.928;12.704;2022-09-03T02:41:32;12.30;99.90
10572;DHT22;5334;48.928;12.704;2022-09-03T02:44:07;12.20;99.90
10572;DHT22;5334;48.928;12.704;2022-09-03T02:46:40;12.10;99.90
10572;DHT22;5334;48.928;12.704;2022-09-03T02:49:08;12.10;99.90
10572;DHT22;5334;48.928;12.704;2022-09-03T02:54:04;12.20;99.90
10572;DHT22;5334;48.928;12.704;2022-09-03T02:56:30;12.20;99.90
10572;DHT22;5334;48.928;12.704;2022-09-03T02:58:56;12.10;99.90
10572;DHT22;5334;48.928;12.704;2022-09-03T03:01:22;12.10;99.90
10572;DHT22;5334;48.928;12.704;2022-09-03T03:03:48;12.00;99.90
10572;DHT22;5334;48.928;12.704;2022-09-03T03:06:14;12.00;99.90
10572;DHT22;5334;48.928;12.704;2022-09-03T03:11:07;11.90;99.90
10572;DHT22;5334;48.928;12.704;2022-09-03T03:13:33;11.80;99.90
10572;DHT22;5334;48.928;12.704;2022-09-03T03:16:04;11.80;99.90
10572;DHT22;5334;48.928;12.704;2022-09-03T03:18:32;11.80;99.90
10572;DHT22;5334;48.928;12.704;2022-09-03T03:21:10;11.80;99.90
10572;DHT22;5334;48.928;12.704;2022-09-03T03:23:37;11.80;99.90
10572;DHT22;5334;48.928;12.704;2022-09-03T03:26:06;11.80;99.90
10572;DHT22;5334;48.928;12.704;2022-09-03T03:28:33;11.90;99.90
10572;DHT22;5334;48.928;12.704;2022-09-03T03:31:10;11.90;99.90
10572;DHT22;5334;48.928;12.704;2022-09-03T03:33:37;11.90;99.90
10572;DHT22;5334;48.928;12.704;2022-09-03T03:36:13;11.90;99.90
10572;DHT22;5334;48.928;12.704;2022-09-03T03:38:40;11.90;99.90
10572;DHT22;5334;48.928;12.704;2022-09-03T03:41:11;12.00;99.90
10572;DHT22;5334;48.928;12.704;2022-09-03T03:43:37;11.90;99.90
10572;DHT22;5334;48.928;12.704;2022-09-03T03:46:03;11.90;99.90
10572;DHT22;5334;48.928;12.704;2022-09-03T03:48:30;12.00;99.90
10572;DHT22;5334;48.928;12.704;2022-09-03T03:51:00;11.80;99.90
10572;DHT22;5334;48.928;12.704;2022-09-03T03:53:29;11.80;99.90
10572;DHT22;5334;48.928;12.704;2022-09-03T03:55:56;11.70;99.90
10572;DHT22;5334;48.928;12.704;2022-09-03T03:58:23;11.80;99.90
10572;DHT22;5334;48.928;12.704;2022-09-03T04:00:51;11.90;99.90
10572;DHT22;5334;48.928;12.704;2022-09-03T04:03:18;11.90;99.90
10572;DHT22;5334;48.928;12.704;2022-09-03T04:05:57;11.90;99.90
10572;DHT22;5334;48.928;12.704;2022-09-03T04:08:24;12.00;99.90
10572;DHT22;5334;48.928;12.704;2022-09-03T04:10:50;12.10;99.90
10572;DHT22;5334;48.928;12.704;2022-09-03T04:13:16;12.20;99.90
10572;DHT22;5334;48.928;12.704;2022-09-03T04:15:42;12.20;99.90
10572;DHT22;5334;48.928;12.704;2022-09-03T04:18:08;12.20;99.90
10572;DHT22;5334;48.928;12.704;2022-09-03T04:20:36;12.10;99.90
10572;DHT22;5334;48.928;12.704;2022-09-03T04:23:03;12.10;99.90
10572;DHT22;5334;48.928;12.704;2022-09-03T04:25:30;12.10;99.90
10572;DHT22;5334;48.928;12.704;2022-09-03T04:27:56;12.20;99.90
10572;DHT22;5334;48.928;12.704;2022-09-03T04:30:21;12.20;99.90
10572;DHT22;5334;48.928;12.704;2022-09-03T04:32:50;12.20;99.90
10572;DHT22;5334;48.928;12.704;2022-09-03T04:35:24;12.30;99.90
10572;DHT22;5334;48.928;12.704;2022-09-03T04:37:50;12.30;99.90
10572;DHT22;5334;48.928;12.704;2022-09-03T04:40:16;12.30;99.90
10572;DHT22;5334;48.928;12.704;2022-09-03T04:42:42;12.40;99.90
10572;DHT22;5334;48.928;12.704;2022-09-03T04:45:09;12.40;99.90
10572;DHT22;5334;48.928;12.704;2022-09-03T04:47:36;12.40;99.90
10572;DHT22;5334;48.928;12.704;2022-09-03T04:50:03;12.40;99.90
10572;DHT22;5334;48.928;12.704;2022-09-03T04:52:29;12.40;99.90
10572;DHT22;5334;48.928;12.704;2022-09-03T04:54:56;12.40;99.90
10572;DHT22;5334;48.928;12.704;2022-09-03T04:57:22;12.50;99.90
10572;DHT22;5334;48.928;12.704;2022-09-03T04:59:48;12.50;99.90
10572;DHT22;5334;48.928;12.704;2022-09-03T05:02:14;12.60;99.90
10572;DHT22;5334;48.928;12.704;2022-09-03T05:04:40;12.60;99.90
10572;DHT22;5334;48.928;12.704;2022-09-03T05:07:06;12.50;99.90
10572;DHT22;5334;48.928;12.704;2022-09-03T05:09:31;12.40;99.90
10572;DHT22;5334;48.928;12.704;2022-09-03T05:11:57;12.30;99.90
10572;DHT22;5334;48.928;12.704;2022-09-03T05:14:23;12.30;99.90
10572;DHT22;5334;48.928;12.704;2022-09-03T05:16:49;12.40;99.90
10572;DHT22;5334;48.928;12.704;2022-09-03T05:19:14;12.40;99.90
10572;DHT22;5334;48.928;12.704;2022-09-03T05:21:40;12.40;99.90
10572;DHT22;5334;48.928;12.704;2022-09-03T05:24:07;12.50;99.90
10572;DHT22;5334;48.928;12.704;2022-09-03T05:26:37;12.60;99.90
10572;DHT22;5334;48.928;12.704;2022-09-03T05:29:04;12.60;99.90
10572;DHT22;5334;48.928;12.704;2022-09-03T05:31:35;12.60;99.90
10572;DHT22;5334;48.928;12.704;2022-09-03T05:34:04;12.60;99.90
10572;DHT22;5334;48.928;12.704;2022-09-03T05:36:33;12.80;99.90
10572;DHT22;5334;48.928;12.704;2022-09-03T05:39:03;13.10;99.90
10572;DHT22;5334;48.928;12.704;2022-09-03T05:41:29;13.30;99.90
10572;DHT22;5334;48.928;12.704;2022-09-03T05:43:56;13.60;99.90
10572;DHT22;5334;48.928;12.704;2022-09-03T05:46:27;13.90;99.90
10572;DHT22;5334;48.928;12.704;2022-09-03T05:49:04;14.20;99.90
10572;DHT22;5334;48.928;12.704;2022-09-03T05:51:31;14.40;99.90
10572;DHT22;5334;48.928;12.704;2022-09-03T05:53:57;14.60;99.90
10572;DHT22;5334;48.928;12.704;2022-09-03T05:56:26;14.70;99.90
10572;DHT22;5334;48.928;12.704;2022-09-03T05:58:54;14.80;99.90
10572;DHT22;5334;48.928;12.704;2022-09-03T06:01:25;15.00;99.90
10572;DHT22;5334;48.928;12.704;2022-09-03T06:04:07;15.30;99.90
10572;DHT22;5334;48.928;12.704;2022-09-03T06:06:36;15.60;99.90
10572;DHT22;5334;48.928;12.704;2022-09-03T06:09:10;15.90;99.90
10572;DHT22;5334;48.928;12.704;2022-09-03T06:11:38;16.20;99.90
10572;DHT22;5334;48.928;12.704;2022-09-03T06:14:09;16.30;99.90
10572;DHT22;5334;48.928;12.704;2022-09-03T06:16:38;16.40;99.90
10572;DHT22;5334;48.928;12.704;2022-09-03T06:19:05;16.30;99.90
10572;DHT22;5334;48.928;12.704;2022-09-03T06:21:37;16.20;99.90
10572;DHT22;5334;48.928;12.704;2022-09-03T06:24:11;16.40;99.90
10572;DHT22;5334;48.928;12.704;2022-09-03T06:26:37;16.60;99.90
10572;DHT22;5334;48.928;12.704;2022-09-03T06:29:03;17.00;99.90
10572;DHT22;5334;48.928;12.704;2022-09-03T06:31:29;17.30;99.90
10572;DHT22;5334;48.928;12.704;2022-09-03T06:33:55;17.60;99.90
10572;DHT22;5334;48.928;12.704;2022-09-03T06:38:52;18.10;99.90
10572;DHT22;5334;48.928;12.704;2022-09-03T06:41:19;18.50;99.90
10572;DHT22;5334;48.928;12.704;2022-09-03T06:43:46;18.50;99.90
10572;DHT22;5334;48.928;12.704;2022-09-03T06:46:18;18.40;99.90
10572;DHT22;5334;48.928;12.704;2022-09-03T06:48:44;18.40;99.90
10572;DHT22;5334;48.928;12.704;2022-09-03T06:51:15;18.40;99.90
10572;DHT22;5334;48.928;12.704;2022-09-03T06:53:45;18.40;99.90
10572;DHT22;5334;48.928;12.704;2022-09-03T06:56:14;18.60;99.90
10572;DHT22;5334;48.928;12.704;2022-09-03T06:58:42;18.80;99.90
10572;DHT22;5334;48.928;12.704;2022-09-03T07:01:20;19.00;99.90
10572;DHT22;5334;48.928;12.704;2022-09-03T07:03:51;19.20;99.90
10572;DHT22;5334;48.928;12.704;2022-09-03T07:06:18;19.10;99.90
10572;DHT22;5334;48.928;12.704;2022-09-03T07:08:45;19.20;99.90
10572;DHT22;5334;48.928;12.704;2022-09-03T07:11:13;19.20;99.90
10572;DHT22;5334;48.928;12.704;2022-09-03T07:13:41;19.10;99.90
10572;DHT22;5334;48.928;12.704;2022-09-03T07:18:38;19.50;99.90
10572;DHT22;5334;48.928;12.704;2022-09-03T07:21:06;19.60;99.90
10572;DHT22;5334;48.928;12.704;2022-09-03T07:23:32;19.70;99.90
10572;DHT22;5334;48.928;12.704;2022-09-03T07:26:00;19.70;99.90
10572;DHT22;5334;48.928;12.704;2022-09-03T07:28:27;19.90;99.90
10572;DHT22;5334;48.928;12.704;2022-09-03T07:33:20;20.30;99.90
10572;DHT22;5334;48.928;12.704;2022-09-03T07:35:46;20.60;99.90
10572;DHT22;5334;48.928;12.704;2022-09-03T07:38:18;20.80;99.90
10572;DHT22;5334;48.928;12.704;2022-09-03T07:40:44;21.10;99.80
10572;DHT22;5334;48.928;12.704;2022-09-03T07:43:11;21.40;99.10
10572;DHT22;5334;48.928;12.704;2022-09-03T07:45:37;21.40;98.40
10572;DHT22;5334;48.928;12.704;2022-09-03T07:48:03;21.30;98.00
10572;DHT22;5334;48.928;12.704;2022-09-03T07:50:29;21.30;98.00
10572;DHT22;5334;48.928;12.704;2022-09-03T07:52:58;21.50;98.10
10572;DHT22;5334;48.928;12.704;2022-09-03T07:55:24;21.50;98.20
10572;DHT22;5334;48.928;12.704;2022-09-03T07:57:55;21.30;98.10
10572;DHT22;5334;48.928;12.704;2022-09-03T08:00:20;21.10;97.80
10572;DHT22;5334;48.928;12.704;2022-09-03T08:02:46;21.00;98.40
10572;DHT22;5334;48.928;12.704;2022-09-03T08:05:12;21.00;99.00
10572;DHT22;5334;48.928;12.704;2022-09-03T08:07:37;21.10;99.10
10572;DHT22;5334;48.928;12.704;2022-09-03T08:10:03;20.90;97.50
10572;DHT22;5334;48.928;12.704;2022-09-03T08:12:30;20.80;97.30
10572;DHT22;5334;48.928;12.704;2022-09-03T08:14:57;20.80;98.10
10572;DHT22;5334;48.928;12.704;2022-09-03T08:17:23;21.20;97.90
10572;DHT22;5334;48.928;12.704;2022-09-03T08:22:15;22.00;96.90
10572;DHT22;5334;48.928;12.704;2022-09-03T08:24:41;22.10;96.30
10572;DHT22;5334;48.928;12.704;2022-09-03T08:27:07;22.10;96.10
10572;DHT22;5334;48.928;12.704;2022-09-03T08:29:34;22.20;95.90
10572;DHT22;5334;48.928;12.704;2022-09-03T08:32:00;22.50;95.20
10572;DHT22;5334;48.928;12.704;2022-09-03T08:34:26;22.50;95.00
10572;DHT22;5334;48.928;12.704;2022-09-03T08:36:51;22.10;94.60
10572;DHT22;5334;48.928;12.704;2022-09-03T08:39:18;22.30;95.00
10572;DHT22;5334;48.928;12.704;2022-09-03T08:44:27;22.60;94.50
10572;DHT22;5334;48.928;12.704;2022-09-03T08:49:37;22.20;94.00
10572;DHT22;5334;48.928;12.704;2022-09-03T08:52:13;22.00;94.60
10572;DHT22;5334;48.928;12.704;2022-09-03T08:54:42;21.70;94.30
10572;DHT22;5334;48.928;12.704;2022-09-03T08:57:09;21.40;95.00
10572;DHT22;5334;48.928;12.704;2022-09-03T08:59:34;21.30;95.50
10572;DHT22;5334;48.928;12.704;2022-09-03T09:02:26;21.10;95.50
10572;DHT22;5334;48.928;12.704;2022-09-03T09:10:47;21.40;95.40
10572;DHT22;5334;48.928;12.704;2022-09-03T09:13:40;21.20;95.80
10572;DHT22;5334;48.928;12.704;2022-09-03T09:19:12;21.10;95.80
10572;DHT22;5334;48.928;12.704;2022-09-03T09:21:53;21.30;95.00
10572;DHT22;5334;48.928;12.704;2022-09-03T09:24:25;21.50;94.90
10572;DHT22;5334;48.928;12.704;2022-09-03T09:26:58;21.60;95.30
10572;DHT22;5334;48.928;12.704;2022-09-03T09:29:31;22.10;94.70
10572;DHT22;5334;48.928;12.704;2022-09-03T09:31:58;22.50;94.50
10572;DHT22;5334;48.928;12.704;2022-09-03T09:34:23;23.10;93.60
10572;DHT22;5334;48.928;12.704;2022-09-03T09:36:54;23.30;92.80
10572;DHT22;5334;48.928;12.704;2022-09-03T09:39:21;23.30;93.00
10572;DHT22;5334;48.928;12.704;2022-09-03T09:41:57;23.60;92.30
10572;DHT22;5334;48.928;12.704;2022-09-03T09:44:25;23.70;92.60
10572;DHT22;5334;48.928;12.704;2022-09-03T09:47:20;24.00;92.60
10572;DHT22;5334;48.928;12.704;2022-09-03T09:49:55;24.30;92.50
10572;DHT22;5334;48.928;12.704;2022-09-03T09:52:23;24.40;91.50
10572;DHT22;5334;48.928;12.704;2022-09-03T09:54:51;23.90;91.20
10572;DHT22;5334;48.928;12.704;2022-09-03T09:57:23;24.00;92.10
10572;DHT22;5334;48.928;12.704;2022-09-03T10:00:00;24.40;92.00
10572;DHT22;5334;48.928;12.704;2022-09-03T10:02:27;24.40;91.10
10572;DHT22;5334;48.928;12.704;2022-09-03T10:04:59;24.10;90.90
10572;DHT22;5334;48.928;12.704;2022-09-03T10:07:28;24.00;91.60
10572;DHT22;5334;48.928;12.704;2022-09-03T10:13:01;23.80;91.80
10572;DHT22;5334;48.928;12.704;2022-09-03T10:20:59;25.00;90.30
10572;DHT22;5334;48.928;12.704;2022-09-03T10:26:20;25.70;88.60
10572;DHT22;5334;48.928;12.704;2022-09-03T10:28:52;25.70;88.70
10572;DHT22;5334;48.928;12.704;2022-09-03T10:38:59;25.30;88.80
10572;DHT22;5334;48.928;12.704;2022-09-03T10:49:48;24.70;89.30
10572;DHT22;5334;48.928;12.704;2022-09-03T10:52:26;24.70;89.00
10572;DHT22;5334;48.928;12.704;2022-09-03T10:55:02;24.60;89.50
10572;DHT22;5334;48.928;12.704;2022-09-03T10:57:57;24.90;88.60
10572;DHT22;5334;48.928;12.704;2022-09-03T11:00:32;25.10;86.70
10572;DHT22;5334;48.928;12.704;2022-09-03T11:03:05;25.40;88.00
10572;DHT22;5334;48.928;12.704;2022-09-03T11:08:44;25.10;86.40
10572;DHT22;5334;48.928;12.704;2022-09-03T11:11:21;25.00;88.30
10572;DHT22;5334;48.928;12.704;2022-09-03T11:14:15;25.30;89.60
10572;DHT22;5334;48.928;12.704;2022-09-03T11:16:50;26.00;87.20
10572;DHT22;5334;48.928;12.704;2022-09-03T11:24:22;27.10;82.90
10572;DHT22;5334;48.928;12.704;2022-09-03T11:27:13;26.90;82.20
10572;DHT22;5334;48.928;12.704;2022-09-03T11:29:52;26.40;82.60
10572;DHT22;5334;48.928;12.704;2022-09-03T11:32:28;26.50;82.80
10572;DHT22;5334;48.928;12.704;2022-09-03T11:34:55;26.60;81.40
10572;DHT22;5334;48.928;12.704;2022-09-03T11:40:13;26.40;81.20
10572;DHT22;5334;48.928;12.704;2022-09-03T11:42:44;26.60;83.00
10572;DHT22;5334;48.928;12.704;2022-09-03T11:45:34;26.70;82.20
10572;DHT22;5334;48.928;12.704;2022-09-03T11:48:01;26.90;83.80
10572;DHT22;5334;48.928;12.704;2022-09-03T11:50:32;26.70;81.40
10572;DHT22;5334;48.928;12.704;2022-09-03T11:53:25;26.40;82.40
10572;DHT22;5334;48.928;12.704;2022-09-03T12:00:52;25.30;84.20
10572;DHT22;5334;48.928;12.704;2022-09-03T12:03:24;25.20;85.00
10572;DHT22;5334;48.928;12.704;2022-09-03T12:06:11;25.20;85.80
10572;DHT22;5334;48.928;12.704;2022-09-03T12:16:55;25.80;84.80
10572;DHT22;5334;48.928;12.704;2022-09-03T12:19:27;25.80;85.10
10572;DHT22;5334;48.928;12.704;2022-09-03T12:21:54;25.90;84.90
10572;DHT22;5334;48.928;12.704;2022-09-03T12:24:20;25.90;84.10
10572;DHT22;5334;48.928;12.704;2022-09-03T12:26:47;25.90;83.90
10572;DHT22;5334;48.928;12.704;2022-09-03T12:29:48;25.80;83.10
10572;DHT22;5334;48.928;12.704;2022-09-03T12:32:14;25.70;84.00
10572;DHT22;5334;48.928;12.704;2022-09-03T12:34:40;25.80;85.20
10572;DHT22;5334;48.928;12.704;2022-09-03T12:37:18;25.20;83.70
10572;DHT22;5334;48.928;12.704;2022-09-03T12:39:55;24.80;84.10
10572;DHT22;5334;48.928;12.704;2022-09-03T12:42:29;24.50;85.50
10572;DHT22;5334;48.928;12.704;2022-09-03T12:45:06;24.20;86.10
10572;DHT22;5334;48.928;12.704;2022-09-03T12:47:38;23.90;86.30
10572;DHT22;5334;48.928;12.704;2022-09-03T12:50:09;23.70;87.00
10572;DHT22;5334;48.928;12.704;2022-09-03T12:52:44;23.70;88.60
10572;DHT22;5334;48.928;12.704;2022-09-03T12:58:02;23.70;89.00
10572;DHT22;5334;48.928;12.704;2022-09-03T13:00:32;23.60;89.30
10572;DHT22;5334;48.928;12.704;2022-09-03T13:03:14;23.50;89.60
10572;DHT22;5334;48.928;12.704;2022-09-03T13:05:44;23.40;90.30
10572;DHT22;5334;48.928;12.704;2022-09-03T13:08:25;23.30;90.40
10572;DHT22;5334;48.928;12.704;2022-09-03T13:11:00;23.40;90.80
10572;DHT22;5334;48.928;12.704;2022-09-03T13:13:33;23.40;90.00
10572;DHT22;5334;48.928;12.704;2022-09-03T13:32:49;25.90;82.30
10572;DHT22;5334;48.928;12.704;2022-09-03T13:35:39;25.70;82.40
10572;DHT22;5334;48.928;12.704;2022-09-03T13:44:17;24.60;83.90
10572;DHT22;5334;48.928;12.704;2022-09-03T13:47:14;24.40;85.70
10572;DHT22;5334;48.928;12.704;2022-09-03T13:49:48;24.30;85.10
10572;DHT22;5334;48.928;12.704;2022-09-03T13:55:20;23.90;85.70
10572;DHT22;5334;48.928;12.704;2022-09-03T14:03:35;23.60;86.80
10572;DHT22;5334;48.928;12.704;2022-09-03T14:12:18;23.40;88.20
10572;DHT22;5334;48.928;12.704;2022-09-03T14:18:01;23.30;88.50
10572;DHT22;5334;48.928;12.704;2022-09-03T14:20:52;23.30;89.20
10572;DHT22;5334;48.928;12.704;2022-09-03T14:26:32;23.10;89.40
10572;DHT22;5334;48.928;12.704;2022-09-03T14:29:14;23.10;89.30
10572;DHT22;5334;48.928;12.704;2022-09-03T14:43:17;23.10;90.90
10572;DHT22;5334;48.928;12.704;2022-09-03T14:46:18;23.20;91.70
10572;DHT22;5334;48.928;12.704;2022-09-03T14:54:43;23.10;92.00
10572;DHT22;5334;48.928;12.704;2022-09-03T15:00:13;23.00;91.30
10572;DHT22;5334;48.928;12.704;2022-09-03T15:06:17;23.10;91.30
10572;DHT22;5334;48.928;12.704;2022-09-03T15:14:56;23.00;95.20
10572;DHT22;5334;48.928;12.704;2022-09-03T15:17:59;23.00;98.40
10572;DHT22;5334;48.928;12.704;2022-09-03T15:26:15;22.70;98.10
10572;DHT22;5334;48.928;12.704;2022-09-03T15:36:59;22.40;99.20
10572;DHT22;5334;48.928;12.704;2022-09-03T15:39:34;22.30;98.80
10572;DHT22;5334;48.928;12.704;2022-09-03T15:42:09;22.30;98.70
10572;DHT22;5334;48.928;12.704;2022-09-03T15:44:50;22.30;98.30
10572;DHT22;5334;48.928;12.704;2022-09-03T15:47:35;22.30;98.40
10572;DHT22;5334;48.928;12.704;2022-09-03T15:50:09;22.40;98.40
10572;DHT22;5334;48.928;12.704;2022-09-03T15:53:01;22.40;98.10
10572;DHT22;5334;48.928;12.704;2022-09-03T15:57:59;22.70;98.70
10572;DHT22;5334;48.928;12.704;2022-09-03T16:01:18;23.00;99.90
10572;DHT22;5334;48.928;12.704;2022-09-03T16:06:44;24.10;97.60
10572;DHT22;5334;48.928;12.704;2022-09-03T16:12:44;23.30;96.80
10572;DHT22;5334;48.928;12.704;2022-09-03T16:15:16;22.90;96.40
10572;DHT22;5334;48.928;12.704;2022-09-03T16:20:53;22.60;96.00
10572;DHT22;5334;48.928;12.704;2022-09-03T16:26:19;22.40;97.40
10572;DHT22;5334;48.928;12.704;2022-09-03T16:28:53;22.30;96.90
10572;DHT22;5334;48.928;12.704;2022-09-03T16:31:50;22.20;98.50
10572;DHT22;5334;48.928;12.704;2022-09-03T16:39:56;22.10;98.10
10572;DHT22;5334;48.928;12.704;2022-09-03T16:42:38;22.00;98.60
10572;DHT22;5334;48.928;12.704;2022-09-03T16:50:30;21.90;98.50
10572;DHT22;5334;48.928;12.704;2022-09-03T16:58:29;21.80;98.90
10572;DHT22;5334;48.928;12.704;2022-09-03T17:01:32;21.80;98.60
10572;DHT22;5334;48.928;12.704;2022-09-03T17:10:14;21.60;99.10
10572;DHT22;5334;48.928;12.704;2022-09-03T17:15:28;21.50;99.60
10572;DHT22;5334;48.928;12.704;2022-09-03T17:24:12;21.40;99.60
10572;DHT22;5334;48.928;12.704;2022-09-03T17:40:05;21.00;99.90
10572;DHT22;5334;48.928;12.704;2022-09-03T17:48:39;20.80;99.90
10572;DHT22;5334;48.928;12.704;2022-09-03T17:51:14;20.80;99.90
10572;DHT22;5334;48.928;12.704;2022-09-03T17:53:52;20.80;99.90
10572;DHT22;5334;48.928;12.704;2022-09-03T17:57:20;20.80;99.90
10572;DHT22;5334;48.928;12.704;2022-09-03T18:01:59;20.70;99.90
10572;DHT22;5334;48.928;12.704;2022-09-03T18:04:42;20.60;99.90
10572;DHT22;5334;48.928;12.704;2022-09-03T18:07:12;20.60;99.90
10572;DHT22;5334;48.928;12.704;2022-09-03T18:12:37;20.50;99.90
10572;DHT22;5334;48.928;12.704;2022-09-03T18:15:17;20.40;99.90
10572;DHT22;5334;48.928;12.704;2022-09-03T18:18:41;20.30;99.90
10572;DHT22;5334;48.928;12.704;2022-09-03T18:20:50;20.20;99.90
10572;DHT22;5334;48.928;12.704;2022-09-03T18:26:32;20.20;99.90
10572;DHT22;5334;48.928;12.704;2022-09-03T18:29:38;20.20;99.90
10572;DHT22;5334;48.928;12.704;2022-09-03T18:32:28;20.10;99.90
10572;DHT22;5334;48.928;12.704;2022-09-03T18:35:12;20.00;99.90
10572;DHT22;5334;48.928;12.704;2022-09-03T18:37:56;20.00;99.90
10572;DHT22;5334;48.928;12.704;2022-09-03T18:41:02;19.90;99.90
10572;DHT22;5334;48.928;12.704;2022-09-03T18:44:00;19.90;99.90
10572;DHT22;5334;48.928;12.704;2022-09-03T18:49:59;19.70;99.90
10572;DHT22;5334;48.928;12.704;2022-09-03T18:52:50;19.60;99.90
10572;DHT22;5334;48.928;12.704;2022-09-03T18:59:21;19.40;99.90
10572;DHT22;5334;48.928;12.704;2022-09-03T19:01:55;19.40;99.90
10572;DHT22;5334;48.928;12.704;2022-09-03T19:04:55;19.40;99.90
10572;DHT22;5334;48.928;12.704;2022-09-03T19:08:23;19.40;99.90
10572;DHT22;5334;48.928;12.704;2022-09-03T19:11:30;19.40;99.90
10572;DHT22;5334;48.928;12.704;2022-09-03T19:20:30;19.40;99.90
10572;DHT22;5334;48.928;12.704;2022-09-03T19:23:15;19.30;99.90
10572;DHT22;5334;48.928;12.704;2022-09-03T19:26:19;19.20;99.90
10572;DHT22;5334;48.928;12.704;2022-09-03T19:32:20;19.10;99.90
10572;DHT22;5334;48.928;12.704;2022-09-03T19:35:20;19.00;99.90
10572;DHT22;5334;48.928;12.704;2022-09-03T19:39:32;19.00;99.90
10572;DHT22;5334;48.928;12.704;2022-09-03T19:41:54;19.10;99.90
10572;DHT22;5334;48.928;12.704;2022-09-03T19:51:23;19.20;99.90
10572;DHT22;5334;48.928;12.704;2022-09-03T19:54:08;19.20;99.90
10572;DHT22;5334;48.928;12.704;2022-09-03T19:56:57;19.20;99.90
10572;DHT22;5334;48.928;12.704;2022-09-03T19:59:44;19.20;99.90
10572;DHT22;5334;48.928;12.704;2022-09-03T20:02:31;19.20;99.90
10572;DHT22;5334;48.928;12.704;2022-09-03T20:05:19;19.20;99.90
10572;DHT22;5334;48.928;12.704;2022-09-03T20:08:04;19.20;99.90
10572;DHT22;5334;48.928;12.704;2022-09-03T20:10:52;19.20;99.90
10572;DHT22;5334;48.928;12.704;2022-09-03T20:13:20;19.20;99.90
10572;DHT22;5334;48.928;12.704;2022-09-03T20:21:41;19.20;99.90
10572;DHT22;5334;48.928;12.704;2022-09-03T20:46:08;18.70;99.90
10572;DHT22;5334;48.928;12.704;2022-09-03T20:51:26;18.70;99.90
10572;DHT22;5334;48.928;12.704;2022-09-03T20:54:20;18.80;99.90
10572;DHT22;5334;48.928;12.704;2022-09-03T21:00:10;18.80;99.90
10572;DHT22;5334;48.928;12.704;2022-09-03T21:05:59;18.70;99.90
10572;DHT22;5334;48.928;12.704;2022-09-03T21:08:47;18.70;99.90
10572;DHT22;5334;48.928;12.704;2022-09-03T21:14:33;18.60;99.90
10572;DHT22;5334;48.928;12.704;2022-09-03T21:25:26;18.50;99.90
10572;DHT22;5334;48.928;12.704;2022-09-03T21:28:00;18.40;99.90
10572;DHT22;5334;48.928;12.704;2022-09-03T21:30:26;18.40;99.90
10572;DHT22;5334;48.928;12.704;2022-09-03T21:33:02;18.30;99.90
10572;DHT22;5334;48.928;12.704;2022-09-03T21:35:32;18.30;99.90
10572;DHT22;5334;48.928;12.704;2022-09-03T21:38:21;18.20;99.90
10572;DHT22;5334;48.928;12.704;2022-09-03T21:43:51;18.30;99.90
10572;DHT22;5334;48.928;12.704;2022-09-03T21:46:24;18.30;99.90
10572;DHT22;5334;48.928;12.704;2022-09-03T21:48:57;18.30;99.90
10572;DHT22;5334;48.928;12.704;2022-09-03T21:51:29;18.30;99.90
10572;DHT22;5334;48.928;12.704;2022-09-03T21:56:45;18.30;99.90
10572;DHT22;5334;48.928;12.704;2022-09-03T22:02:30;18.30;99.90
10572;DHT22;5334;48.928;12.704;2022-09-03T22:04:58;18.30;99.90
10572;DHT22;5334;48.928;12.704;2022-09-03T22:13:02;18.30;99.90
10572;DHT22;5334;48.928;12.704;2022-09-03T22:15:34;18.20;99.90
10572;DHT22;5334;48.928;12.704;2022-09-03T22:18:26;18.10;99.90
10572;DHT22;5334;48.928;12.704;2022-09-03T22:26:46;18.00;99.90
10572;DHT22;5334;48.928;12.704;2022-09-03T22:37:24;17.90;99.90
10572;DHT22;5334;48.928;12.704;2022-09-03T22:39:56;17.90;99.90
10572;DHT22;5334;48.928;12.704;2022-09-03T22:45:30;17.60;99.90
10572;DHT22;5334;48.928;12.704;2022-09-03T22:50:59;17.50;99.90
10572;DHT22;5334;48.928;12.704;2022-09-03T22:56:11;17.40;99.90
10572;DHT22;5334;48.928;12.704;2022-09-03T22:59:11;17.40;99.90
10572;DHT22;5334;48.928;12.704;2022-09-03T23:01:44;17.40;99.90
10572;DHT22;5334;48.928;12.704;2022-09-03T23:09:53;17.40;99.90
10572;DHT22;5334;48.928;12.704;2022-09-03T23:12:32;17.40;99.90
10572;DHT22;5334;48.928;12.704;2022-09-03T23:15:02;17.30;99.90
10572;DHT22;5334;48.928;12.704;2022-09-03T23:17:37;17.30;99.90
10572;DHT22;5334;48.928;12.704;2022-09-03T23:20:15;17.30;99.90
10572;DHT22;5334;48.928;12.704;2022-09-03T23:25:50;17.10;99.90